الصفحة الرئيسية
METAR-TAF:

METAR-TAF

مطار :

ياكوتسك, روسيا

دائرة عرض: 62-01N, خط طول: 129-43E, ارتفاع: 103 متر

مراقبة الطقس الحالي

تاريخ ووقت الإصدار 36 دقيقة قبل الساعة 19:00UTC
ريح 8 عقدة من الشمال الغربي
درجة الحرارة 17°درجة مئوية
الرطوبة 68%
ضغط 1006 hPa
الرؤية 10 كم أو أكثر
الغيوم لا تقل 1500 م ولا وجود لمزنة ركامية السحاب الأسود

METAR: UEEE 221900Z 31004MPS CAVOK 17/11 Q1006 R23/09//59 NOSIG RMK QFE746

زمن: 04:36 (19:36 UTC)

توقعات

تاريخ ووقت الإصدار 2ساعات و 36 دقيقة قبل الساعة 17:00UTC
التوقعات صالحة من22 الساعة 18 UTC إلى 23 الساعة 24 UTC
ريح 6 عقدة من الغرب/الشمال الغربي تتزايد حتى 19 عقدة
الرؤية 10 كم أو أكثر
غيوم متفرقة على ارتفاع 3000 قدم, مزنة ركامية.
مؤقت
من 22 الساعة 18 UTC إلى 23 الساعة 06 UTC
ريح 16 عقدةمن اتجاهات متغيرة

TAF: UEEE 221700Z 2218/2324 30003G10MPS 9999 SCT030CB TX30/2306Z TN15/2218Z TEMPO 2218/2306 VRB08MPS

أرصاد الطقس والتوقعات من أكثر من 4000 مطار (تقارير الطقس للمطار METAR والتنبؤ بالطقس بالمطارTAF).

المحطات المتاحة هي النقط الصفراء والحمراء على الخريطة.

حرك المؤشر فوق النقطة لمعرفة اسم المحطة.

ثم انقر لمعرفة أرصاد وتوقعات الطقس.

لتغيير الخارطة: اضغط على الأزرار الخضراء مع رمز الصليب الأسود للتكبير. على الزر الأخضر مع شرطة للتصغير، أو على الأسهم الخضراء للخرائط المجاورة.


METAR-TAF: